TimeHADT,TemperatureF,Dew PointF,Humidity,Sea Level PressureIn,VisibilityMPH,Wind Direction,Wind SpeedMPH,Gust SpeedMPH,PrecipitationIn,Events,Conditions,WindDirDegrees,DateUTC
12:16 AM,28.4,24.8,86,30.19,10.0,SW,3.5,-,0.03,,Clear,230,2013-03-17 09:16:00
12:36 AM,28.4,24.8,86,30.19,10.0,SW,5.8,-,0.04,,Clear,230,2013-03-17 09:36:00
12:56 AM,28.4,23.0,80,30.19,10.0,WSW,5.8,-,0.04,,Clear,240,2013-03-17 09:56:00
1:16 AM,28.4,24.8,86,30.20,10.0,SW,6.9,-,N/A,,Clear,230,2013-03-17 10:16:00
1:36 AM,28.4,24.8,86,30.20,10.0,SW,6.9,-,N/A,,Clear,230,2013-03-17 10:36:00
1:56 AM,28.4,23.0,80,30.20,10.0,SW,8.1,-,N/A,,Clear,220,2013-03-17 10:56:00
2:16 AM,26.6,24.8,93,30.20,10.0,West,3.5,-,N/A,,Clear,280,2013-03-17 11:16:00
2:36 AM,26.6,21.2,80,30.19,10.0,Calm,Calm,-,N/A,,Clear,0,2013-03-17 11:36:00
2:56 AM,26.6,23.0,86,30.19,10.0,Calm,Calm,-,0.02,,Clear,0,2013-03-17 11:56:00
3:16 AM,26.6,21.2,80,30.20,10.0,Calm,Calm,-,0.02,,Clear,0,2013-03-17 12:16:00
3:36 AM,26.6,23.0,86,30.20,10.0,NW,5.8,-,0.02,,Clear,320,2013-03-17 12:36:00
3:56 AM,26.6,21.2,80,30.21,10.0,NNW,6.9,-,0.04,,Clear,330,2013-03-17 12:56:00
4:16 AM,24.8,21.2,86,30.20,10.0,North,4.6,-,0.01,,Clear,350,2013-03-17 13:16:00
4:36 AM,24.8,21.2,86,30.20,10.0,NNW,3.5,-,0.02,,Clear,330,2013-03-17 13:36:00
4:56 AM,24.8,21.2,86,30.19,10.0,Calm,Calm,-,0.04,,Clear,0,2013-03-17 13:56:00
5:16 AM,24.8,21.2,86,30.18,10.0,NNW,4.6,-,N/A,,Clear,330,2013-03-17 14:16:00
5:36 AM,24.8,19.4,80,30.18,10.0,North,6.9,-,N/A,,Clear,350,2013-03-17 14:36:00
5:56 AM,24.8,21.2,86,30.17,10.0,North,6.9,-,N/A,,Clear,360,2013-03-17 14:56:00
6:16 AM,26.6,23.0,86,30.17,10.0,North,5.8,-,N/A,,Clear,360,2013-03-17 15:16:00
6:36 AM,26.6,24.8,93,30.16,10.0,North,10.4,-,N/A,,Clear,10,2013-03-17 15:36:00
6:56 AM,26.6,21.2,80,30.16,10.0,NNE,5.8,-,N/A,,Clear,30,2013-03-17 15:56:00
7:16 AM,28.4,24.8,86,30.16,10.0,ENE,11.5,-,0.01,,Mostly Cloudy,70,2013-03-17 16:16:00
7:36 AM,33.8,26.6,75,30.16,10.0,East,11.5,-,0.01,,Mostly Cloudy,80,2013-03-17 16:36:00
7:56 AM,33.8,28.4,81,30.16,10.0,East,13.8,-,0.01,,Mostly Cloudy,80,2013-03-17 16:56:00
8:16 AM,33.8,26.6,75,30.17,10.0,East,16.1,-,N/A,,Mostly Cloudy,80,2013-03-17 17:16:00
8:36 AM,33.8,26.6,75,30.16,10.0,East,17.3,-,N/A,,Partly Cloudy,90,2013-03-17 17:36:00
8:56 AM,35.6,26.6,70,30.16,10.0,East,18.4,-,0.02,,Clear,90,2013-03-17 17:56:00
9:16 AM,33.8,26.6,75,30.16,10.0,ENE,15.0,-,0.01,,Clear,70,2013-03-17 18:16:00
9:36 AM,35.6,26.6,70,30.16,10.0,East,16.1,-,0.01,,Partly Cloudy,80,2013-03-17 18:36:00
9:56 AM,35.6,28.4,75,30.16,10.0,East,21.9,-,0.01,,Clear,90,2013-03-17 18:56:00
10:16 AM,35.6,28.4,75,30.16,10.0,East,18.4,-,N/A,,Clear,80,2013-03-17 19:16:00
10:36 AM,35.6,28.4,75,30.15,10.0,East,24.2,29.9,N/A,,Clear,80,2013-03-17 19:36:00
10:56 AM,35.6,28.4,75,30.16,10.0,East,23.0,-,N/A,,Clear,80,2013-03-17 19:56:00
11:16 AM,35.6,28.4,75,30.15,10.0,East,23.0,-,0.01,,Clear,80,2013-03-17 20:16:00
11:36 AM,37.4,28.4,70,30.15,10.0,East,20.7,-,0.02,,Scattered Clouds,90,2013-03-17 20:36:00
11:56 AM,37.4,28.4,70,30.15,10.0,East,18.4,24.2,0.02,,Partly Cloudy,80,2013-03-17 20:56:00
12:16 PM,37.4,28.4,70,30.14,10.0,East,21.9,-,0.01,,Clear,80,2013-03-17 21:16:00
12:36 PM,37.4,28.4,70,30.14,10.0,East,21.9,25.3,0.01,,Clear,80,2013-03-17 21:36:00
12:56 PM,37.4,28.4,70,30.13,10.0,East,24.2,-,0.01,,Clear,90,2013-03-17 21:56:00
1:16 PM,37.4,28.4,70,30.13,10.0,East,24.2,-,N/A,,Clear,80,2013-03-17 22:16:00
1:36 PM,37.4,30.2,75,30.12,10.0,ENE,21.9,-,N/A,,Clear,70,2013-03-17 22:36:00
1:56 PM,39.2,28.4,65,30.11,10.0,East,24.2,27.6,N/A,,Clear,80,2013-03-17 22:56:00
2:16 PM,39.2,28.4,65,30.11,10.0,East,25.3,-,0.01,,Clear,80,2013-03-17 23:16:00
2:36 PM,39.2,30.2,70,30.10,10.0,ENE,20.7,-,0.01,,Clear,70,2013-03-17 23:36:00
2:56 PM,39.2,30.2,70,30.08,10.0,East,24.2,28.8,0.01,,Clear,80,2013-03-17 23:56:00
3:16 PM,39.2,30.2,70,30.07,10.0,East,26.5,-,N/A,,Clear,80,2013-03-18 00:16:00
3:36 PM,39.2,30.2,70,30.06,10.0,ENE,24.2,31.1,N/A,,Clear,70,2013-03-18 00:36:00
3:56 PM,39.2,30.2,70,30.05,10.0,ENE,25.3,-,N/A,,Clear,70,2013-03-18 00:56:00
4:16 PM,39.2,30.2,70,30.04,10.0,ENE,25.3,-,N/A,,Clear,70,2013-03-18 01:16:00
4:36 PM,39.2,30.2,70,30.03,10.0,ENE,23.0,29.9,0.01,,Clear,70,2013-03-18 01:36:00
4:56 PM,39.2,30.2,70,30.03,10.0,ENE,20.7,31.1,0.02,,Clear,70,2013-03-18 01:56:00
5:16 PM,39.2,32.0,75,30.02,10.0,ENE,18.4,23.0,N/A,,Clear,70,2013-03-18 02:16:00
5:36 PM,39.2,30.2,70,30.02,10.0,ENE,20.7,26.5,0.01,,Clear,70,2013-03-18 02:36:00
5:56 PM,39.2,30.2,70,30.01,10.0,ENE,23.0,-,0.01,,Clear,70,2013-03-18 02:56:00
6:16 PM,39.2,30.2,70,30.00,9.0,ENE,23.0,31.1,N/A,,Clear,70,2013-03-18 03:16:00
6:36 PM,39.2,30.2,70,30.00,9.0,ENE,23.0,-,N/A,,Clear,70,2013-03-18 03:36:00
6:56 PM,39.2,30.2,70,30.00,9.0,ENE,21.9,28.8,N/A,,Partly Cloudy,70,2013-03-18 03:56:00
7:16 PM,37.4,30.2,75,29.99,9.0,ENE,24.2,31.1,0.01,,Mostly Cloudy,70,2013-03-18 04:16:00
7:36 PM,37.4,30.2,75,29.99,8.0,East,20.7,26.5,0.01,,Overcast,80,2013-03-18 04:36:00
7:56 PM,39.2,30.2,70,29.99,8.0,East,20.7,-,0.01,,Overcast,80,2013-03-18 04:56:00
8:16 PM,37.4,30.2,75,29.98,8.0,East,21.9,26.5,N/A,,Overcast,80,2013-03-18 05:16:00
8:36 PM,37.4,32.0,81,29.97,7.0,East,32.2,38.0,N/A,,Overcast,80,2013-03-18 05:36:00
8:56 PM,37.4,32.0,81,29.97,6.0,East,28.8,39.1,N/A,,Overcast,80,2013-03-18 05:56:00
9:16 PM,37.4,32.0,81,29.97,9.0,East,31.1,38.0,N/A,,Overcast,80,2013-03-18 06:16:00
9:36 PM,37.4,33.8,87,29.97,10.0,East,28.8,34.5,N/A,,Overcast,80,2013-03-18 06:36:00
9:56 PM,37.4,33.8,87,29.96,10.0,East,31.1,35.7,N/A,,Overcast,80,2013-03-18 06:56:00
10:16 PM,39.2,33.8,81,29.95,10.0,East,25.3,32.2,N/A,,Overcast,80,2013-03-18 07:16:00
10:36 PM,37.4,33.8,87,29.95,10.0,ENE,23.0,-,N/A,,Overcast,70,2013-03-18 07:36:00
10:56 PM,37.4,33.8,87,29.94,6.0,ENE,27.6,31.1,N/A,,Overcast,70,2013-03-18 07:56:00
11:16 PM,37.4,33.8,87,29.94,4.0,ENE,27.6,34.5,N/A,,Overcast,60,2013-03-18 08:16:00
11:36 PM,37.4,35.6,93,29.93,5.0,ENE,26.5,34.5,0.01,,Overcast,60,2013-03-18 08:36:00
11:56 PM,37.4,35.6,93,29.93,3.0,ENE,28.8,34.5,0.01,,Overcast,70,2013-03-18 08:56:00